Time;durP1;ratioP1;P1;durP2;ratioP2;P2;SDS_P1;SDS_P2;PMS_P1;PMS_P2;Temp;Humidity;BMP_temperature;BMP_pressure;BME280_temperature;BME280_humidity;BME280_pressure;Samples;Min_cycle;Max_cycle;Signal;HPM_P1;HPM_P2
2023/07/13 00:00:12;;;;;;;2.30;0.90;;;;;;;;;;5076254;28;20064;-75
2023/07/13 00:02:38;;;;;;;1.15;0.80;;;;;;;;;;5077257;28;20111;-75
2023/07/13 00:05:06;;;;;;;1.30;0.90;;;;;;;;;;5078983;28;20067;-74
2023/07/13 00:07:34;;;;;;;1.77;1.02;;;;;;;;;;5073062;28;20051;-74
2023/07/13 00:10:02;;;;;;;1.88;0.80;;;;;;;;;;5079141;28;20233;-74
2023/07/13 00:12:32;;;;;;;1.25;0.82;;;;;;;;;;5082356;28;20059;-74
2023/07/13 00:15:00;;;;;;;3.42;1.02;;;;;;;;;;5077054;28;20048;-75
2023/07/13 00:17:27;;;;;;;1.38;0.85;;;;;;;;;;5079076;28;20049;-75
2023/07/13 00:19:56;;;;;;;2.58;0.90;;;;;;;;;;5075696;28;20139;-74
2023/07/13 00:22:25;;;;;;;2.40;0.82;;;;;;;;;;5075010;28;20040;-75
2023/07/13 00:24:55;;;;;;;1.23;0.87;;;;;;;;;;5077138;28;20079;-75
2023/07/13 00:27:23;;;;;;;3.53;1.10;;;;;;;;;;5078143;28;20496;-74
2023/07/13 00:29:49;;;;;;;1.33;0.82;;;;;;;;;;5073562;28;20044;-74
2023/07/13 00:32:16;;;;;;;1.17;0.90;;;;;;;;;;5077016;28;20400;-75
2023/07/13 00:34:43;;;;;;;1.85;1.02;;;;;;;;;;5074050;28;20048;-75
2023/07/13 00:37:11;;;;;;;2.35;1.00;;;;;;;;;;5072984;28;20052;-75
2023/07/13 00:39:38;;;;;;;1.50;0.75;;;;;;;;;;5075788;28;20048;-75
2023/07/13 00:42:06;;;;;;;1.58;0.85;;;;;;;;;;5077006;28;20055;-74
2023/07/13 00:44:33;;;;;;;2.08;1.02;;;;;;;;;;5094424;28;20052;-74
2023/07/13 00:47:00;;;;;;;2.45;0.85;;;;;;;;;;5076997;28;20044;-75
2023/07/13 00:49:30;;;;;;;2.67;1.13;;;;;;;;;;5080357;28;20051;-75
2023/07/13 00:52:03;;;;;;;0.95;0.80;;;;;;;;;;5078315;28;20052;-75
2023/07/13 00:54:38;;;;;;;3.05;0.90;;;;;;;;;;5079396;28;20143;-74
2023/07/13 00:57:11;;;;;;;2.88;0.95;;;;;;;;;;5073392;28;20412;-75
2023/07/13 00:59:41;;;;;;;1.65;0.80;;;;;;;;;;5075229;28;20044;-75
2023/07/13 01:02:08;;;;;;;1.63;0.90;;;;;;;;;;5072063;28;20538;-75
2023/07/13 01:04:34;;;;;;;1.20;0.80;;;;;;;;;;5073670;28;20060;-74
2023/07/13 01:07:01;;;;;;;1.95;0.90;;;;;;;;;;5070207;28;20090;-74
2023/07/13 01:09:28;;;;;;;1.35;0.90;;;;;;;;;;5074454;28;20048;-75
2023/07/13 01:11:55;;;;;;;1.10;0.90;;;;;;;;;;5076784;28;20048;-74
2023/07/13 01:14:21;;;;;;;1.88;0.95;;;;;;;;;;5072320;28;20052;-74
2023/07/13 01:16:50;;;;;;;1.67;0.90;;;;;;;;;;5076467;28;20052;-75
2023/07/13 01:19:35;;;;;;;0.90;0.80;;;;;;;;;;5076032;28;20164;-75
2023/07/13 01:22:08;;;;;;;1.25;0.80;;;;;;;;;;5077574;28;20048;-74
2023/07/13 01:24:36;;;;;;;1.63;0.90;;;;;;;;;;5079098;28;20045;-74
2023/07/13 01:27:03;;;;;;;1.92;0.80;;;;;;;;;;5095550;28;20094;-74
2023/07/13 01:29:31;;;;;;;1.27;0.85;;;;;;;;;;5071481;28;20401;-74
2023/07/13 01:31:57;;;;;;;1.50;0.90;;;;;;;;;;5080285;28;20052;-74
2023/07/13 01:34:24;;;;;;;1.38;0.90;;;;;;;;;;5080717;28;20316;-75
2023/07/13 01:36:53;;;;;;;2.85;0.98;;;;;;;;;;5074762;28;20056;-74
2023/07/13 01:39:23;;;;;;;1.33;0.90;;;;;;;;;;5078397;28;20054;-75
2023/07/13 01:41:50;;;;;;;2.28;0.95;;;;;;;;;;5075805;28;20458;-74
2023/07/13 01:44:16;;;;;;;1.92;0.90;;;;;;;;;;5075602;28;20075;-75
2023/07/13 01:46:44;;;;;;;3.60;0.80;;;;;;;;;;5074393;28;20041;-74
2023/07/13 01:49:10;;;;;;;1.50;0.88;;;;;;;;;;5077497;28;20072;-74
2023/07/13 01:51:37;;;;;;;1.10;0.82;;;;;;;;;;5076471;28;20127;-75
2023/07/13 01:54:04;;;;;;;1.15;0.73;;;;;;;;;;5073348;28;20660;-75
2023/07/13 01:56:30;;;;;;;3.47;1.00;;;;;;;;;;5070100;28;20075;-74
2023/07/13 01:58:57;;;;;;;1.67;0.90;;;;;;;;;;5077332;28;20577;-75
2023/07/13 02:01:24;;;;;;;1.73;1.08;;;;;;;;;;5074772;28;20041;-75
2023/07/13 02:03:51;;;;;;;1.05;0.80;;;;;;;;;;5072676;28;20455;-74
2023/07/13 02:06:18;;;;;;;1.88;0.93;;;;;;;;;;5070654;28;20120;-75
2023/07/13 02:08:44;;;;;;;2.20;1.00;;;;;;;;;;5079401;28;20335;-74
2023/07/13 02:11:11;;;;;;;1.83;1.00;;;;;;;;;;5080234;28;20305;-74
2023/07/13 02:13:38;;;;;;;1.45;0.90;;;;;;;;;;5078653;28;20080;-74
2023/07/13 02:16:06;;;;;;;3.17;0.88;;;;;;;;;;5073721;28;20045;-74
2023/07/13 02:18:33;;;;;;;1.70;0.85;;;;;;;;;;5072164;28;20064;-74
2023/07/13 02:20:59;;;;;;;2.88;1.15;;;;;;;;;;5075140;28;20044;-74
2023/07/13 02:23:26;;;;;;;4.55;0.93;;;;;;;;;;5074607;28;20135;-74
2023/07/13 02:25:57;;;;;;;2.35;1.10;;;;;;;;;;5070978;28;20064;-74
2023/07/13 02:28:24;;;;;;;2.30;1.00;;;;;;;;;;5074145;28;20048;-74
2023/07/13 02:30:51;;;;;;;1.38;0.88;;;;;;;;;;5075126;28;20048;-74
2023/07/13 02:33:18;;;;;;;1.13;0.95;;;;;;;;;;5076543;28;20051;-74
2023/07/13 02:35:44;;;;;;;1.00;0.88;;;;;;;;;;5074123;28;20067;-74
2023/07/13 02:38:11;;;;;;;3.47;1.00;;;;;;;;;;5079237;28;20228;-74
2023/07/13 02:40:38;;;;;;;2.20;0.88;;;;;;;;;;5076474;28;20040;-74
2023/07/13 02:43:05;;;;;;;1.13;0.93;;;;;;;;;;5076631;28;20048;-74
2023/07/13 02:45:31;;;;;;;1.75;1.00;;;;;;;;;;5077710;28;20067;-74
2023/07/13 02:47:58;;;;;;;2.03;0.90;;;;;;;;;;5075205;28;20048;-74
2023/07/13 02:50:25;;;;;;;0.80;0.80;;;;;;;;;;5073678;28;20052;-74
2023/07/13 02:52:52;;;;;;;2.00;0.95;;;;;;;;;;5072548;28;20047;-74
2023/07/13 02:55:18;;;;;;;2.45;1.00;;;;;;;;;;5073790;28;20087;-74
2023/07/13 02:57:45;;;;;;;1.00;0.90;;;;;;;;;;5072337;28;20055;-74
2023/07/13 03:00:12;;;;;;;2.70;1.00;;;;;;;;;;5069164;28;20049;-74
2023/07/13 03:02:39;;;;;;;3.08;0.82;;;;;;;;;;5072619;28;20094;-74
2023/07/13 03:05:06;;;;;;;1.52;0.93;;;;;;;;;;5075222;28;20059;-74
2023/07/13 03:07:32;;;;;;;1.63;0.80;;;;;;;;;;5073516;28;20052;-74
2023/07/13 03:09:59;;;;;;;1.60;1.00;;;;;;;;;;5068967;28;20751;-74
2023/07/13 03:12:26;;;;;;;1.48;0.90;;;;;;;;;;5072021;28;20098;-74
2023/07/13 03:14:52;;;;;;;1.55;0.88;;;;;;;;;;5069866;28;20547;-74
2023/07/13 03:17:22;;;;;;;2.22;0.90;;;;;;;;;;5071684;28;20079;-74
2023/07/13 03:19:51;;;;;;;1.88;0.80;;;;;;;;;;5075118;28;20553;-74
2023/07/13 03:22:18;;;;;;;3.85;1.08;;;;;;;;;;5073856;28;20055;-74
2023/07/13 03:24:45;;;;;;;1.75;0.82;;;;;;;;;;5080987;28;20346;-74
2023/07/13 03:27:12;;;;;;;4.47;0.85;;;;;;;;;;5078100;28;20040;-74
2023/07/13 03:29:39;;;;;;;1.88;0.90;;;;;;;;;;5074397;28;20054;-74
2023/07/13 03:32:06;;;;;;;1.00;0.80;;;;;;;;;;5072709;28;20041;-74
2023/07/13 03:34:33;;;;;;;1.98;0.77;;;;;;;;;;5074374;28;20048;-74
2023/07/13 03:36:59;;;;;;;2.78;1.15;;;;;;;;;;5075041;28;20051;-74
2023/07/13 03:39:26;;;;;;;1.77;0.85;;;;;;;;;;5075359;28;20048;-74
2023/07/13 03:41:53;;;;;;;1.63;0.90;;;;;;;;;;5072156;28;20127;-75
2023/07/13 03:44:20;;;;;;;4.95;1.10;;;;;;;;;;5074318;28;20044;-74
2023/07/13 03:46:46;;;;;;;1.88;0.70;;;;;;;;;;5075884;28;20056;-74
2023/07/13 03:49:13;;;;;;;2.30;0.90;;;;;;;;;;5074879;28;20110;-74
2023/07/13 03:51:40;;;;;;;1.83;0.80;;;;;;;;;;5074876;28;20048;-74
2023/07/13 03:54:07;;;;;;;2.50;0.90;;;;;;;;;;5078409;28;20224;-75
2023/07/13 03:56:33;;;;;;;4.32;0.90;;;;;;;;;;5082938;28;20055;-75
2023/07/13 03:59:00;;;;;;;2.03;0.80;;;;;;;;;;5098660;28;20048;-75
2023/07/13 04:01:27;;;;;;;4.30;1.30;;;;;;;;;;5082845;28;20068;-75
2023/07/13 04:03:53;;;;;;;2.83;0.77;;;;;;;;;;5082827;28;20063;-75
2023/07/13 04:06:24;;;;;;;4.32;1.00;;;;;;;;;;5082989;28;20072;-75
2023/07/13 04:08:56;;;;;;;1.42;0.68;;;;;;;;;;5082669;28;20044;-75
2023/07/13 04:11:26;;;;;;;1.20;0.80;;;;;;;;;;5083017;28;20044;-75
2023/07/13 04:13:53;;;;;;;2.03;0.90;;;;;;;;;;5082819;28;20050;-75
2023/07/13 04:16:20;;;;;;;3.58;0.95;;;;;;;;;;5082540;28;20045;-75
2023/07/13 04:18:47;;;;;;;1.35;0.80;;;;;;;;;;5082304;28;20049;-75
2023/07/13 04:21:15;;;;;;;3.28;1.13;;;;;;;;;;5082495;28;20044;-75
2023/07/13 04:23:42;;;;;;;1.95;0.90;;;;;;;;;;5098030;28;20072;-75
2023/07/13 04:26:09;;;;;;;2.10;0.90;;;;;;;;;;5082223;28;20112;-75
2023/07/13 04:28:36;;;;;;;3.08;1.10;;;;;;;;;;5082298;28;20052;-75
2023/07/13 04:31:03;;;;;;;1.85;0.80;;;;;;;;;;5081842;28;20044;-75
2023/07/13 04:33:30;;;;;;;2.28;0.80;;;;;;;;;;5082300;28;20045;-75
2023/07/13 04:35:57;;;;;;;3.63;1.10;;;;;;;;;;5082364;28;20260;-75
2023/07/13 04:38:27;;;;;;;3.20;0.88;;;;;;;;;;5081701;28;20056;-75
2023/07/13 04:40:59;;;;;;;0.95;0.80;;;;;;;;;;5082630;28;20053;-75
2023/07/13 04:43:26;;;;;;;2.30;0.82;;;;;;;;;;5082324;28;20048;-75
2023/07/13 04:45:54;;;;;;;1.80;0.90;;;;;;;;;;5097742;28;20111;-75
2023/07/13 04:48:24;;;;;;;3.78;0.80;;;;;;;;;;5082210;28;20048;-74
2023/07/13 04:50:55;;;;;;;1.13;0.80;;;;;;;;;;5082064;28;20045;-75
2023/07/13 04:53:22;;;;;;;1.65;0.90;;;;;;;;;;5081684;28;20066;-75
2023/07/13 04:55:49;;;;;;;1.70;0.88;;;;;;;;;;5081907;28;20051;-75
2023/07/13 04:58:16;;;;;;;1.60;0.90;;;;;;;;;;5081823;28;20056;-75
2023/07/13 05:00:43;;;;;;;1.13;0.55;;;;;;;;;;5081640;28;20044;-74
2023/07/13 05:03:10;;;;;;;2.38;0.70;;;;;;;;;;5081655;28;20123;-75
2023/07/13 05:05:36;;;;;;;0.88;0.70;;;;;;;;;;5081888;28;20044;-75
2023/07/13 05:08:04;;;;;;;1.60;0.75;;;;;;;;;;5081357;28;20107;-75
2023/07/13 05:10:30;;;;;;;1.45;0.75;;;;;;;;;;5081407;28;20392;-75
2023/07/13 05:12:57;;;;;;;2.55;0.90;;;;;;;;;;5081289;28;20119;-75
2023/07/13 05:15:25;;;;;;;2.33;0.85;;;;;;;;;;5081497;28;20372;-75
2023/07/13 05:17:51;;;;;;;1.23;0.52;;;;;;;;;;5081316;28;20044;-75
2023/07/13 05:20:19;;;;;;;4.15;0.70;;;;;;;;;;5081317;28;20044;-75
2023/07/13 05:22:50;;;;;;;1.63;0.90;;;;;;;;;;5081125;28;20051;-75
2023/07/13 05:25:17;;;;;;;1.73;0.90;;;;;;;;;;5081292;28;20044;-75
2023/07/13 05:27:45;;;;;;;3.08;0.77;;;;;;;;;;5081223;28;20048;-75
2023/07/13 05:30:13;;;;;;;1.20;0.55;;;;;;;;;;5081026;28;20075;-75
2023/07/13 05:32:40;;;;;;;1.50;0.63;;;;;;;;;;5081175;28;20087;-75
2023/07/13 05:35:07;;;;;;;2.33;0.70;;;;;;;;;;5081350;28;20059;-75
2023/07/13 05:37:34;;;;;;;1.23;0.52;;;;;;;;;;5080889;28;20243;-74
2023/07/13 05:40:00;;;;;;;2.25;0.85;;;;;;;;;;5096778;28;20111;-74
2023/07/13 05:42:31;;;;;;;1.90;0.77;;;;;;;;;;5079939;28;20305;-73
2023/07/13 05:45:02;;;;;;;2.25;0.90;;;;;;;;;;5081012;28;20058;-75
2023/07/13 05:47:28;;;;;;;3.10;0.73;;;;;;;;;;5069213;28;20055;-75
2023/07/13 05:49:55;;;;;;;2.08;0.60;;;;;;;;;;5069112;28;20131;-75
2023/07/13 05:52:22;;;;;;;1.70;0.90;;;;;;;;;;5068880;28;20412;-75
2023/07/13 05:54:48;;;;;;;1.45;0.75;;;;;;;;;;5071418;28;20048;-75
2023/07/13 05:57:15;;;;;;;2.00;0.85;;;;;;;;;;5069067;28;20048;-75
2023/07/13 05:59:42;;;;;;;1.25;0.70;;;;;;;;;;5069634;28;20482;-75
2023/07/13 06:02:10;;;;;;;1.63;0.75;;;;;;;;;;5070732;28;20048;-75
2023/07/13 06:04:37;;;;;;;2.55;0.73;;;;;;;;;;5068764;28;20056;-75
2023/07/13 06:07:04;;;;;;;2.80;1.00;;;;;;;;;;5070417;28;20110;-75
2023/07/13 06:09:31;;;;;;;1.40;0.65;;;;;;;;;;5068912;28;20121;-75
2023/07/13 06:11:57;;;;;;;2.17;0.75;;;;;;;;;;5068718;28;20606;-75
2023/07/13 06:14:24;;;;;;;0.90;0.52;;;;;;;;;;5069076;28;20040;-75
2023/07/13 06:16:51;;;;;;;2.75;0.85;;;;;;;;;;5069122;28;20075;-75
2023/07/13 06:19:18;;;;;;;1.23;0.75;;;;;;;;;;5069692;28;20044;-75
2023/07/13 06:21:44;;;;;;;4.32;0.60;;;;;;;;;;5068734;28;20059;-75
2023/07/13 06:24:11;;;;;;;3.05;0.73;;;;;;;;;;5068264;28;20535;-75
2023/07/13 06:26:38;;;;;;;1.60;0.70;;;;;;;;;;5068938;28;20056;-75
2023/07/13 06:29:05;;;;;;;2.63;0.70;;;;;;;;;;5068918;28;20044;-75
2023/07/13 06:31:31;;;;;;;0.80;0.55;;;;;;;;;;5067671;28;20056;-75
2023/07/13 06:33:58;;;;;;;2.25;0.70;;;;;;;;;;5068561;28;20048;-75
2023/07/13 06:36:25;;;;;;;0.93;0.63;;;;;;;;;;5068277;28;20068;-75
2023/07/13 06:38:52;;;;;;;1.65;0.80;;;;;;;;;;5067813;28;20070;-75
2023/07/13 06:41:18;;;;;;;2.30;0.43;;;;;;;;;;5068697;28;20055;-75
2023/07/13 06:43:45;;;;;;;2.08;0.60;;;;;;;;;;5068435;28;20436;-75
2023/07/13 06:46:12;;;;;;;0.60;0.60;;;;;;;;;;5068962;28;20059;-75
2023/07/13 06:48:38;;;;;;;1.23;0.70;;;;;;;;;;5068730;28;20083;-75
2023/07/13 06:51:08;;;;;;;1.83;0.70;;;;;;;;;;5068781;28;20044;-75
2023/07/13 06:53:35;;;;;;;2.88;0.80;;;;;;;;;;5069700;28;20049;-75
2023/07/13 06:56:02;;;;;;;2.10;0.70;;;;;;;;;;5072647;28;20041;-75
2023/07/13 06:58:29;;;;;;;0.95;0.60;;;;;;;;;;5073862;28;20040;-74
2023/07/13 07:00:55;;;;;;;1.15;0.60;;;;;;;;;;5099709;28;20058;-74
2023/07/13 07:03:22;;;;;;;1.25;0.50;;;;;;;;;;5083737;28;20457;-75
2023/07/13 07:05:49;;;;;;;2.67;0.55;;;;;;;;;;5083686;28;20336;-75
2023/07/13 07:08:16;;;;;;;0.90;0.70;;;;;;;;;;5083471;28;20044;-75
2023/07/13 07:10:42;;;;;;;1.73;0.60;;;;;;;;;;5083734;28;20044;-75
2023/07/13 07:13:09;;;;;;;1.42;0.65;;;;;;;;;;5083638;28;20044;-75
2023/07/13 07:15:36;;;;;;;0.85;0.70;;;;;;;;;;5083549;28;20374;-75
2023/07/13 07:18:03;;;;;;;0.77;0.65;;;;;;;;;;5083849;28;20097;-75
2023/07/13 07:20:32;;;;;;;1.30;0.63;;;;;;;;;;5083321;28;20044;-75
2023/07/13 07:22:59;;;;;;;4.25;0.90;;;;;;;;;;5083216;28;20051;-76
2023/07/13 07:25:26;;;;;;;0.50;0.50;;;;;;;;;;5083729;28;20044;-75
2023/07/13 07:27:53;;;;;;;0.77;0.57;;;;;;;;;;5083466;28;20051;-79
2023/07/13 07:30:22;;;;;;;0.57;0.50;;;;;;;;;;5081983;28;20060;-78
2023/07/13 07:32:52;;;;;;;0.45;0.32;;;;;;;;;;5082485;28;20049;-77
2023/07/13 07:35:23;;;;;;;1.20;0.70;;;;;;;;;;5083627;28;20068;-76
2023/07/13 07:37:50;;;;;;;2.35;0.77;;;;;;;;;;5083186;28;20265;-76
2023/07/13 07:40:18;;;;;;;0.43;0.40;;;;;;;;;;5083082;28;20391;-76
2023/07/13 07:42:48;;;;;;;1.50;0.50;;;;;;;;;;5083423;28;20108;-75
2023/07/13 07:45:15;;;;;;;1.50;0.60;;;;;;;;;;5082894;28;20049;-86
2023/07/13 07:47:41;;;;;;;1.00;0.50;;;;;;;;;;5083107;28;20045;-76
2023/07/13 07:50:10;;;;;;;0.80;0.43;;;;;;;;;;5082815;28;20044;-76
2023/07/13 07:52:37;;;;;;;1.52;0.52;;;;;;;;;;5082392;28;20044;-75
2023/07/13 07:55:07;;;;;;;1.42;0.50;;;;;;;;;;5082875;28;20056;-77
2023/07/13 07:57:37;;;;;;;0.82;0.45;;;;;;;;;;5082923;28;20040;-76
2023/07/13 08:00:07;;;;;;;1.25;0.57;;;;;;;;;;5082737;28;20044;-75
2023/07/13 08:02:37;;;;;;;1.73;0.55;;;;;;;;;;5080283;28;20051;-76
2023/07/13 08:05:08;;;;;;;0.80;0.50;;;;;;;;;;5074755;28;20056;-75
2023/07/13 08:07:39;;;;;;;1.15;0.50;;;;;;;;;;5075974;28;20048;-77
2023/07/13 08:10:06;;;;;;;0.93;0.50;;;;;;;;;;5075934;28;20119;-78
2023/07/13 08:12:37;;;;;;;0.50;0.40;;;;;;;;;;5074623;28;20141;-74
2023/07/13 08:15:12;;;;;;;0.98;0.50;;;;;;;;;;5076129;28;20067;-77
2023/07/13 08:17:40;;;;;;;2.20;0.68;;;;;;;;;;5071401;28;20056;-76
2023/07/13 08:20:08;;;;;;;1.95;0.60;;;;;;;;;;5064202;28;20052;-78
2023/07/13 08:22:36;;;;;;;1.67;0.43;;;;;;;;;;5062136;28;20417;-80
2023/07/13 08:25:03;;;;;;;0.47;0.30;;;;;;;;;;5061711;28;20052;-78
2023/07/13 08:27:30;;;;;;;1.85;0.50;;;;;;;;;;5061995;28;20066;-78
2023/07/13 08:29:56;;;;;;;1.40;0.70;;;;;;;;;;5062983;28;20531;-76
2023/07/13 08:32:23;;;;;;;3.30;0.50;;;;;;;;;;5062089;28;20102;-76
2023/07/13 08:34:50;;;;;;;0.93;0.50;;;;;;;;;;5061624;28;20059;-75
2023/07/13 08:37:18;;;;;;;0.68;0.50;;;;;;;;;;5062068;28;20048;-75
2023/07/13 08:39:45;;;;;;;0.52;0.40;;;;;;;;;;5064342;28;20135;-76
2023/07/13 08:42:44;;;;;;;1.27;0.50;;;;;;;;;;5062216;28;20055;-75
2023/07/13 08:45:24;;;;;;;0.60;0.43;;;;;;;;;;5063478;28;20052;-75
2023/07/13 08:47:56;;;;;;;0.50;0.50;;;;;;;;;;5061343;28;20098;-75
2023/07/13 08:50:28;;;;;;;3.70;0.70;;;;;;;;;;5063114;28;20044;-75
2023/07/13 08:52:56;;;;;;;5.07;0.40;;;;;;;;;;5067030;28;20734;-76
2023/07/13 08:55:31;;;;;;;1.20;0.55;;;;;;;;;;5066944;28;20049;-76
2023/07/13 08:58:12;;;;;;;1.17;0.60;;;;;;;;;;5068385;28;20075;-76
2023/07/13 09:01:09;;;;;;;3.83;0.70;;;;;;;;;;5068080;28;20052;-76
2023/07/13 09:03:43;;;;;;;1.98;0.52;;;;;;;;;;5068148;28;20144;-76
2023/07/13 09:06:13;;;;;;;4.28;0.60;;;;;;;;;;5069754;28;20642;-75
2023/07/13 09:08:59;;;;;;;0.57;0.50;;;;;;;;;;5081262;28;20086;-76
2023/07/13 09:11:45;;;;;;;0.43;0.43;;;;;;;;;;5079823;28;20045;-76
2023/07/13 09:14:47;;;;;;;2.60;0.50;;;;;;;;;;5077576;28;20516;-75
2023/07/13 09:17:24;;;;;;;1.98;0.60;;;;;;;;;;5071401;28;20100;-75
2023/07/13 09:19:58;;;;;;;2.20;0.50;;;;;;;;;;5074346;28;20071;-75
2023/07/13 09:22:31;;;;;;;1.63;0.70;;;;;;;;;;5070855;28;20052;-74
2023/07/13 09:25:18;;;;;;;;;;;;;;;;;;5071424;28;20058;-75
2023/07/13 09:27:47;;;;;;;2.03;0.52;;;;;;;;;;5073522;28;19920;-75
2023/07/13 09:30:14;;;;;;;0.45;0.43;;;;;;;;;;5070737;28;20051;-75
2023/07/13 09:32:51;;;;;;;2.15;0.98;;;;;;;;;;5073703;28;20127;-79
2023/07/13 09:35:29;;;;;;;1.02;0.50;;;;;;;;;;5072465;28;20051;-75
2023/07/13 09:38:16;;;;;;;1.77;0.45;;;;;;;;;;5077650;28;20046;-75
2023/07/13 09:41:08;;;;;;;0.43;0.40;;;;;;;;;;5072391;28;20474;-75
2023/07/13 09:43:36;;;;;;;1.10;0.60;;;;;;;;;;5070270;28;20076;-74
2023/07/13 09:46:04;;;;;;;1.15;0.50;;;;;;;;;;5067410;28;20040;-75
2023/07/13 09:48:36;;;;;;;0.85;0.63;;;;;;;;;;5067751;28;20135;-75
2023/07/13 09:51:16;;;;;;;1.58;0.70;;;;;;;;;;5068174;28;20048;-74
2023/07/13 09:53:43;;;;;;;1.00;0.50;;;;;;;;;;5066769;28;20226;-75
2023/07/13 09:56:24;;;;;;;0.57;0.40;;;;;;;;;;5068027;28;20488;-75
2023/07/13 09:58:51;;;;;;;0.95;0.55;;;;;;;;;;5067969;28;20045;-74
2023/07/13 10:01:35;;;;;;;1.30;0.30;;;;;;;;;;5067937;28;20043;-75
2023/07/13 10:04:09;;;;;;;1.90;0.80;;;;;;;;;;5068926;28;20096;-75
2023/07/13 10:06:36;;;;;;;3.25;0.63;;;;;;;;;;5068819;28;20071;-74
2023/07/13 10:09:07;;;;;;;1.98;0.60;;;;;;;;;;5067854;28;20048;-75
2023/07/13 10:11:35;;;;;;;3.40;0.75;;;;;;;;;;5068344;28;20512;-75
2023/07/13 10:14:15;;;;;;;0.40;0.40;;;;;;;;;;5068946;28;20041;-75
2023/07/13 10:16:44;;;;;;;0.60;0.60;;;;;;;;;;5068728;28;20443;-75
2023/07/13 10:19:26;;;;;;;1.20;0.50;;;;;;;;;;5068669;28;20050;-76
2023/07/13 10:21:55;;;;;;;1.08;0.60;;;;;;;;;;5068041;28;20127;-74
2023/07/13 10:24:24;;;;;;;0.60;0.40;;;;;;;;;;5068820;28;20488;-75
2023/07/13 10:27:07;;;;;;;2.03;0.45;;;;;;;;;;5068555;28;20496;-75
2023/07/13 10:29:42;;;;;;;0.70;0.40;;;;;;;;;;5068293;28;20057;-74
2023/07/13 10:32:11;;;;;;;0.73;0.50;;;;;;;;;;5068446;28;20041;-75
2023/07/13 10:34:39;;;;;;;0.85;0.60;;;;;;;;;;5068619;28;20048;-75
2023/07/13 10:37:16;;;;;;;2.00;0.60;;;;;;;;;;5068204;28;20078;-74
2023/07/13 10:39:43;;;;;;;1.08;0.57;;;;;;;;;;5068976;28;20115;-75
2023/07/13 10:42:27;;;;;;;1.52;0.60;;;;;;;;;;5068563;28;20045;-75
2023/07/13 10:44:54;;;;;;;1.90;0.70;;;;;;;;;;5068138;28;20424;-75
2023/07/13 10:47:22;;;;;;;0.77;0.50;;;;;;;;;;5068265;28;20424;-75
2023/07/13 10:49:54;;;;;;;1.75;0.55;;;;;;;;;;5068547;28;20053;-75
2023/07/13 10:52:46;;;;;;;1.02;0.52;;;;;;;;;;5072422;28;20716;-75
2023/07/13 10:55:38;;;;;;;1.52;0.70;;;;;;;;;;5068344;28;20710;-74
2023/07/13 10:58:29;;;;;;;1.30;0.68;;;;;;;;;;5068879;28;20048;-74
2023/07/13 11:01:15;;;;;;;0.55;0.50;;;;;;;;;;5068285;28;20508;-74
2023/07/13 11:03:59;;;;;;;2.25;0.65;;;;;;;;;;5073479;28;20400;-75
2023/07/13 11:06:41;;;;;;;0.93;0.60;;;;;;;;;;5068587;28;20048;-75
2023/07/13 11:09:32;;;;;;;1.80;0.70;;;;;;;;;;5068071;28;20136;-75
2023/07/13 11:12:02;;;;;;;1.50;0.73;;;;;;;;;;5068198;28;20053;-74
2023/07/13 11:14:30;;;;;;;1.20;0.63;;;;;;;;;;5068612;28;20063;-76
2023/07/13 11:16:58;;;;;;;1.35;0.40;;;;;;;;;;5075415;28;20051;-75
2023/07/13 11:19:36;;;;;;;0.80;0.50;;;;;;;;;;5067980;28;20641;-74
2023/07/13 11:22:09;;;;;;;0.90;0.65;;;;;;;;;;5066730;28;20049;-75
2023/07/13 11:24:52;;;;;;;2.95;0.70;;;;;;;;;;5067910;28;20565;-75
2023/07/13 11:27:25;;;;;;;1.70;0.40;;;;;;;;;;5068655;28;20041;-75
2023/07/13 11:30:06;;;;;;;0.85;0.60;;;;;;;;;;5066854;28;20523;-74
2023/07/13 11:32:33;;;;;;;1.00;0.52;;;;;;;;;;5067815;28;20447;-75
2023/07/13 11:34:59;;;;;;;1.42;0.52;;;;;;;;;;5068316;28;20048;-75
2023/07/13 11:37:29;;;;;;;2.20;0.80;;;;;;;;;;5067552;28;20175;-76
2023/07/13 11:39:56;;;;;;;1.13;0.60;;;;;;;;;;5068003;28;20060;-75
2023/07/13 11:42:22;;;;;;;1.60;0.50;;;;;;;;;;5070753;28;20500;-75
2023/07/13 11:44:51;;;;;;;0.93;0.68;;;;;;;;;;5070967;28;20048;-75
2023/07/13 11:47:40;;;;;;;1.45;0.70;;;;;;;;;;5071644;28;20049;-75
2023/07/13 11:50:18;;;;;;;0.70;0.55;;;;;;;;;;5071492;28;20080;-75
2023/07/13 11:52:45;;;;;;;1.67;0.50;;;;;;;;;;5074220;28;20044;-75
2023/07/13 11:55:20;;;;;;;0.95;0.63;;;;;;;;;;5071128;28;20048;-75
2023/07/13 11:58:09;;;;;;;1.25;0.70;;;;;;;;;;5071163;28;20049;-77
2023/07/13 12:00:38;;;;;;;2.20;0.68;;;;;;;;;;5071277;28;20052;-74
2023/07/13 12:03:05;;;;;;;0.70;0.60;;;;;;;;;;5070833;28;20044;-75
2023/07/13 12:05:32;;;;;;;4.25;0.70;;;;;;;;;;5071226;28;20072;-75
2023/07/13 12:07:59;;;;;;;0.55;0.50;;;;;;;;;;5069608;28;20052;-75
2023/07/13 12:10:29;;;;;;;1.35;0.73;;;;;;;;;;5071184;28;20448;-75
2023/07/13 12:13:07;;;;;;;1.70;0.60;;;;;;;;;;5070715;28;20499;-75
2023/07/13 12:15:44;;;;;;;0.68;0.55;;;;;;;;;;5070852;28;20131;-75
2023/07/13 12:18:19;;;;;;;1.45;0.60;;;;;;;;;;5070680;28;20056;-73
2023/07/13 12:20:47;;;;;;;1.77;0.50;;;;;;;;;;5070843;28;20048;-74
2023/07/13 12:23:32;;;;;;;2.05;0.47;;;;;;;;;;5070446;28;20055;-76
2023/07/13 12:26:03;;;;;;;1.67;0.55;;;;;;;;;;5071031;28;20052;-74
2023/07/13 12:28:34;;;;;;;1.02;0.60;;;;;;;;;;5070927;28;20060;-75
2023/07/13 12:31:04;;;;;;;0.90;0.52;;;;;;;;;;5070715;28;20748;-75
2023/07/13 12:33:32;;;;;;;0.55;0.50;;;;;;;;;;5070819;28;20462;-75
2023/07/13 12:36:05;;;;;;;0.75;0.60;;;;;;;;;;5070552;28;20082;-75
2023/07/13 12:38:32;;;;;;;0.70;0.50;;;;;;;;;;5069995;28;20385;-74
2023/07/13 12:41:01;;;;;;;1.05;0.70;;;;;;;;;;5076606;28;20046;-75
2023/07/13 12:43:36;;;;;;;1.20;0.50;;;;;;;;;;5074493;28;20632;-74
2023/07/13 12:46:15;;;;;;;1.27;0.73;;;;;;;;;;5070512;28;20691;-75
2023/07/13 12:48:45;;;;;;;0.90;0.60;;;;;;;;;;5070364;28;20053;-75
2023/07/13 12:51:25;;;;;;;2.75;0.57;;;;;;;;;;5069766;28;20576;-75
2023/07/13 12:54:18;;;;;;;0.57;0.50;;;;;;;;;;5070065;28;20049;-75
2023/07/13 12:56:52;;;;;;;2.08;0.93;;;;;;;;;;5070478;28;20051;-76
2023/07/13 12:59:22;;;;;;;0.63;0.50;;;;;;;;;;5070440;28;20044;-76
2023/07/13 13:01:50;;;;;;;0.63;0.50;;;;;;;;;;5069404;28;20051;-75
2023/07/13 13:04:21;;;;;;;1.63;0.65;;;;;;;;;;5069630;28;20049;-75
2023/07/13 13:07:01;;;;;;;1.40;0.57;;;;;;;;;;5069745;28;20136;-75
2023/07/13 13:09:27;;;;;;;1.35;0.52;;;;;;;;;;5069787;28;20045;-75
2023/07/13 13:11:54;;;;;;;1.17;0.60;;;;;;;;;;5069794;28;20415;-74
2023/07/13 13:14:21;;;;;;;0.73;0.50;;;;;;;;;;5069826;28;20504;-75
2023/07/13 13:16:49;;;;;;;1.70;0.60;;;;;;;;;;5069832;28;20099;-74
2023/07/13 13:19:21;;;;;;;1.67;0.57;;;;;;;;;;5069650;28;20068;-75
2023/07/13 13:21:49;;;;;;;1.27;0.60;;;;;;;;;;5069299;28;20459;-75
2023/07/13 13:24:20;;;;;;;0.80;0.50;;;;;;;;;;5069428;28;20508;-75
2023/07/13 13:26:48;;;;;;;1.08;0.57;;;;;;;;;;5069697;28;20055;-76
2023/07/13 13:29:20;;;;;;;0.95;0.55;;;;;;;;;;5069116;28;20054;-75
2023/07/13 13:31:48;;;;;;;1.55;0.50;;;;;;;;;;5069549;28;20514;-75
2023/07/13 13:34:16;;;;;;;2.60;0.52;;;;;;;;;;5069322;28;20052;-75
2023/07/13 13:36:44;;;;;;;0.57;0.45;;;;;;;;;;5069482;28;20511;-76
2023/07/13 13:39:35;;;;;;;1.92;0.55;;;;;;;;;;5068642;28;20048;-75
2023/07/13 13:42:02;;;;;;;0.68;0.50;;;;;;;;;;5066395;28;20060;-75
2023/07/13 13:44:29;;;;;;;0.75;0.43;;;;;;;;;;5069127;28;20049;-76
2023/07/13 13:46:56;;;;;;;2.22;0.52;;;;;;;;;;5069385;28;20040;-75
2023/07/13 13:49:25;;;;;;;1.05;0.50;;;;;;;;;;5069185;28;20128;-75
2023/07/13 13:51:53;;;;;;;1.30;0.50;;;;;;;;;;5069179;28;20114;-76
2023/07/13 13:54:22;;;;;;;1.35;0.50;;;;;;;;;;5068896;28;20047;-75
2023/07/13 13:56:50;;;;;;;2.42;0.45;;;;;;;;;;5068990;28;20558;-76
2023/07/13 13:59:18;;;;;;;0.55;0.50;;;;;;;;;;5069195;28;20045;-75
2023/07/13 14:01:49;;;;;;;0.85;0.40;;;;;;;;;;5071039;28;20098;-75
2023/07/13 14:04:19;;;;;;;1.40;0.50;;;;;;;;;;5067862;28;20044;-75
2023/07/13 14:06:47;;;;;;;0.80;0.60;;;;;;;;;;5068618;28;20045;-74
2023/07/13 14:09:17;;;;;;;1.55;0.55;;;;;;;;;;5068099;28;20135;-75
2023/07/13 14:11:46;;;;;;;1.42;0.40;;;;;;;;;;5069112;28;20485;-75
2023/07/13 14:14:20;;;;;;;0.50;0.40;;;;;;;;;;5068680;28;20051;-73
2023/07/13 14:16:53;;;;;;;1.60;0.60;;;;;;;;;;5069058;28;20049;-74
2023/07/13 14:19:21;;;;;;;0.65;0.35;;;;;;;;;;5068740;28;20051;-74
2023/07/13 14:21:49;;;;;;;1.35;0.60;;;;;;;;;;5067404;28;20052;-75
2023/07/13 14:24:16;;;;;;;1.20;0.60;;;;;;;;;;5069082;28;20086;-75
2023/07/13 14:26:42;;;;;;;1.05;0.60;;;;;;;;;;5068871;28;20041;-73
2023/07/13 14:29:16;;;;;;;1.83;0.40;;;;;;;;;;5068937;28;20051;-74
2023/07/13 14:31:44;;;;;;;0.73;0.40;;;;;;;;;;5068883;28;20060;-75
2023/07/13 14:34:12;;;;;;;0.47;0.40;;;;;;;;;;5068718;28;20091;-75
2023/07/13 14:36:45;;;;;;;1.08;0.50;;;;;;;;;;5068765;28;20145;-75
2023/07/13 14:39:16;;;;;;;0.60;0.40;;;;;;;;;;5068550;28;20230;-74
2023/07/13 14:41:44;;;;;;;0.65;0.60;;;;;;;;;;5068782;28;20049;-75
2023/07/13 14:44:12;;;;;;;0.40;0.40;;;;;;;;;;5068374;28;20147;-75
2023/07/13 14:46:41;;;;;;;1.27;0.60;;;;;;;;;;5068576;28;20045;-75
2023/07/13 14:49:20;;;;;;;0.93;0.55;;;;;;;;;;5068742;28;20076;-75
2023/07/13 14:51:47;;;;;;;0.40;0.35;;;;;;;;;;5068409;28;20048;-75
2023/07/13 14:54:14;;;;;;;0.40;0.40;;;;;;;;;;5068154;28;20048;-75
2023/07/13 14:56:41;;;;;;;1.67;0.60;;;;;;;;;;5068375;28;20071;-74
2023/07/13 14:59:07;;;;;;;1.30;0.30;;;;;;;;;;5068673;28;20049;-75